Terminal Aerodrome Forecast
Issued by NWS

Current Version | Previous Version | Text Only | Print | Product List | Glossary Off
Versions: 1 2 3 4 5 6 7 8 9 10 11 12 13 14 15 16 17 18 19 20

000
FTUS41 KILN 190815 AAA
TAFLCK
TAF AMD
KLCK 190815Z 1908/2006 30016G26KT P6SM VCSH OVC028
     FM191100 30012G22KT P6SM OVC025
     FM192300 28012KT P6SM BKN035
     FM200200 28009KT P6SM FEW090=

USA.gov is the U.S. government's official web portal to all federal, state and local government web resources and services.